Weather observations for the past three days for
St. Mary's, St. Mary's Airport
Metric (Imperial)
Date Time (akdt) Wind (kph) Vis. (km) Weather Sky Cond. Temperature (ºC) Relative Humidity Wind Chill (°C) Heat Index (°C) Pressure Precipitation (cm)
Air Dwpt 6 hour altimeter (cm) sea level (mb) 1 hr 3 hr 6 hr
Max. Min.
07 17:56 N 28 16.09 A Few Clouds FEW030 1.7 -6.7 54% -4 76.38 1019.4
07 16:56 N 24 G 35 16.09 A Few Clouds FEW030 1.7 -5.6 59% -3 76.4 1019.7
07 15:56 N 28 16.09 A Few Clouds FEW028 1.7 -5.6 1.7 -3.3 59% -4 76.43 1020.0
07 14:56 N 31 16.09 Mostly Cloudy BKN030 1.7 -5 61% -4 76.45 1020.2
07 13:56 NE 19 16.09 Mostly Cloudy BKN028 1.1 -6.1 59% -3 76.48 1020.6
07 12:56 N 20 16.09 Partly Cloudy SCT024 0.6 -6.1 61% -4 76.48 1020.8
07 11:56 N 17 16.09 A Few Clouds FEW017 -0.6 -5.6 69% -5 76.5 1021.0
07 10:56 N 22 16.09 A Few Clouds FEW013 -2.2 -6.1 75% -8 76.5 1021.1
07 09:56 N 20 G 31 16.09 A Few Clouds FEW012 -3.3 -6.1 -3.3 -7.8 81% -9 76.53 1021.2
07 08:56 N 19 16.09 Fair CLR -4.4 -7.2 81% -10 76.53 1021.3
07 07:56 N 13 16.09 Fair CLR -6.1 -8.3 85% -11 76.56 1021.6
07 06:56 N 13 16.09 Fair CLR -7.8 -8.9 92% -13 76.53 1021.5
07 05:56 N 9 16.09 Fair CLR -6.7 -8.3 89% -11 76.53 1021.4
07 04:56 N 9 16.09 Fair CLR -5.6 -8.3 82% -9 76.53 1021.5
07 03:56 N 11 16.09 Overcast OVC023 -3.9 -7.8 -1.1 -3.9 75% -8 76.53 1021.5
07 02:56 N 13 16.09 Overcast OVC023 -3.3 -7.2 75% -8 76.53 1021.4
07 01:56 N 13 16.09 Overcast OVC023 -2.8 -7.2 72% -7 76.53 1021.3
07 00:56 N 11 16.09 Overcast OVC025 -2.2 -7.2 69% -6 76.5 1021.0
06 23:56 N 9 16.09 Overcast OVC027 -2.2 -6.1 75% -5 76.5 1021.0
06 22:56 NW 7 16.09 Overcast OVC027 -2.2 -6.7 72% -5 76.48 1020.7
06 21:56 N 15 16.09 Overcast OVC025 -1.1 -6.1 -0.6 -1.7 69% -5 76.48 1020.5
06 20:56 NW 13 16.09 Overcast OVC025 -1.1 -6.1 69% -5 76.48 1020.5
06 19:56 NW 9 16.09 Overcast OVC025 -0.6 -6.1 67% -3 76.45 1020.4
06 18:56 W 17 16.09 Overcast OVC023 -0.6 -5 72% -5 76.45 1020.3
06 17:56 SW 13 16.09 Overcast OVC021 -0.6 -5.6 69% -4 76.45 1020.3
06 16:56 SW 13 16.09 Overcast OVC019 -0.6 -5 72% -4 76.45 1020.3
06 15:56 W 9 16.09 Overcast OVC017 -1.7 -5.6 -1.1 -3.9 75% -5 76.48 1020.6
06 14:56 SW 9 16.09 Overcast OVC015 -1.1 -5.6 72% -4 76.45 1020.5
06 13:56 Vrbl 7 16.09 Overcast OVC015 -2.2 -6.1 75% -5 76.48 1020.5
06 12:56 SW 11 16.09 Overcast OVC013 -2.8 -6.1 78% -7 76.45 1020.5
06 11:56 NW 6 16.09 Overcast OVC013 -3.3 -6.7 78% 76.45 1020.4
06 10:56 NW 7 16.09 Overcast OVC011 -3.9 -6.1 85% -7 76.43 1020.2
06 09:56 NW 13 16.09 Overcast OVC009 -3.9 -6.1 -3.9 -4.4 85% -8 76.43 1020.1
06 08:56 NW 11 16.09 Overcast OVC009 -4.4 -6.1 88% -8 76.43 1019.9
06 07:56 NW 9 16.09 Overcast OVC009 -4.4 -6.7 84% -8 76.4 1019.6
06 06:56 NW 7 16.09 Overcast OVC009 -4.4 -6.7 84% -7 76.38 1019.3
06 05:56 NW 13 16.09 Overcast OVC009 -4.4 -6.1 88% -9 76.35 1019.0
06 04:56 NW 11 16.09 Overcast OVC009 -4.4 -6.7 84% -8 76.35 1018.8
06 03:56 NW 13 16.09 Overcast OVC009 -4.4 -6.7 -3.3 -4.4 84% -9 76.33 1018.7
06 02:56 NW 15 16.09 Overcast OVC009 -4.4 -6.1 88% -9 76.33 1018.5
06 01:56 NW 15 16.09 Overcast OVC009 -4.4 -6.1 88% -9 76.3 1018.5
06 00:56 NW 19 16.09 Overcast OVC009 -4.4 -6.1 88% -10 76.28 1018.1
05 23:56 NW 15 16.09 Overcast OVC011 -3.9 -6.1 85% -9 76.28 1017.8
05 22:56 NW 17 16.09 Overcast OVC011 -3.3 -5.6 84% -8 76.25 1017.5
05 21:56 NW 24 16.09 Overcast OVC013 -3.3 -5.6 0.6 -3.3 84% -10 76.23 1017.2
05 20:56 NW 19 16.09 Overcast OVC013 -2.8 -5 85% -8 76.2 1017.1
05 19:56 NW 20 16.09 Overcast OVC013 -2.2 -5.6 78% -8 76.2 1017.1
05 18:56 NW 22 16.09 Overcast OVC017 -1.1 -5 75% -7 76.17 1016.7
05 17:56 NW 20 16.09 Overcast OVC021 -0.6 -5 72% -6 76.15 1016.3
05 16:56 NW 20 16.09 Mostly Cloudy BKN021 0 -4.4 73% -5 76.12 1015.9
05 15:56 NW 26 G 31 16.09 Mostly Cloudy BKN019 0 -5 0 -3.9 69% -6 76.12 1015.7
05 14:56 N 24 16.09 Overcast OVC015 -0.6 -3.9 79% -6 76.12 1015.7
05 13:56 NW 26 16.09 Overcast OVC013 -1.1 -4.4 79% -7 76.1 1015.5
05 12:56 NW 24 G 35 16.09 Mostly Cloudy BKN013 -1.7 -4.4 82% -8 76.1 1015.4
05 11:56 N 26 16.09 Overcast OVC011 -1.7 -5 78% -8 76.07 1015.1
05 10:56 NW 26 16.09 Overcast OVC007 -3.3 -5 88% -10 76.05 1014.9
05 09:56 NW 26 16.09 Overcast OVC003 -3.9 -4.4 -3.9 -5 96% -11 76.05 1014.8
05 08:56 N 26 16.09 Overcast OVC003 -4.4 -4.4 100% -11 76 1014.4
05 07:56 N 28 16.09 Overcast OVC003 -4.4 -4.4 100% -11 75.97 1013.9
05 06:56 N 28 16.09 Mostly Cloudy BKN005 -5 -5 100% -12 75.92 1013.2
05 05:56 NW 26 16.09 Fair CLR -5 -5 100% -12 75.9 1012.8
05 04:56 NW 24 16.09 Fair CLR -4.4 -4.4 100% -11 75.87 1012.5
05 03:56 N 26 16.09 Fair CLR -4.4 -4.4 -1.1 -4.4 100% -11 75.87 1012.5
05 02:56 N 26 16.09 Fair CLR -3.9 -4.4 96% -11 75.87 1012.4
05 01:56 N 28 16.09 Fair CLR -3.3 -4.4 92% -10 75.87 1012.3
05 00:56 N 30 16.09 Fair CLR -2.8 -3.9 92% -10 75.84 1012.2
04 23:56 N 30 16.09 Fair CLR -2.2 -3.9 88% -9 75.84 1012.3
04 22:56 N 31 16.09 Partly Cloudy SCT013 -1.7 -3.9 85% -8 75.84 1012.3
04 21:56 N 41 16.09 Overcast and Breezy OVC015 -1.1 -3.3 0 -1.1 85% -8 75.84 1012.3
04 20:56 N 39 16.09 Overcast and Breezy OVC013 -1.1 -3.9 82% -8 75.87 1012.4
04 19:56 N 39 G 52 16.09 Overcast and Breezy OVC019 -0.6 -3.9 79% -8 75.9 1012.9
04 18:56 N 39 G 56 16.09 Overcast and Breezy OVC019 -1.1 -4.4 79% -8 75.92 1013.0
Date Time (akdt) Wind (kph) Vis. (km) Weather Sky Cond. Air Dwpt Max. Min. Relative Humidity Wind Chill (°C) Heat Index (°C) altimeter (cm) sea level (mb) 1 hr 3 hr 6 hr
6 hour
Temperature (ºC) Pressure Precipitation (cm)